createdAt,value
2022-11-06T00:00:31.531Z,2.10
2022-11-06T00:03:01.979Z,1.70
2022-11-06T00:05:48.621Z,2.45
2022-11-06T00:08:17.175Z,2.38
2022-11-06T00:10:45.224Z,2.22
2022-11-06T00:13:13.265Z,1.98
2022-11-06T00:15:41.500Z,2.35
2022-11-06T00:18:11.250Z,1.95
2022-11-06T00:20:39.956Z,2.13
2022-11-06T00:23:08.120Z,2.25
2022-11-06T00:25:36.563Z,2.25
2022-11-06T00:28:04.614Z,1.63
2022-11-06T00:30:32.984Z,2.30
2022-11-06T00:33:00.997Z,2.00
2022-11-06T00:35:30.805Z,1.60
2022-11-06T00:37:58.932Z,1.52
2022-11-06T00:40:27.312Z,1.60
2022-11-06T00:42:57.035Z,1.90
2022-11-06T00:45:26.103Z,1.70
2022-11-06T00:47:54.153Z,2.25
2022-11-06T00:50:26.607Z,1.58
2022-11-06T00:52:56.195Z,2.00
2022-11-06T00:55:24.397Z,1.67
2022-11-06T00:57:52.470Z,1.80
2022-11-06T01:00:20.996Z,1.95
2022-11-06T01:02:49.517Z,1.55
2022-11-06T01:05:18.221Z,1.85
2022-11-06T01:07:46.826Z,1.67
2022-11-06T01:10:16.576Z,1.70
2022-11-06T01:12:44.626Z,1.52
2022-11-06T01:15:12.809Z,1.52
2022-11-06T01:17:41.206Z,1.58
2022-11-06T01:20:10.436Z,1.52
2022-11-06T01:22:38.481Z,1.58
2022-11-06T01:25:07.956Z,1.70
2022-11-06T01:27:37.452Z,1.80
2022-11-06T01:30:06.628Z,2.08
2022-11-06T01:32:35.920Z,1.80
2022-11-06T01:35:04.333Z,1.77
2022-11-06T01:37:32.368Z,1.45
2022-11-06T01:40:00.719Z,1.40
2022-11-06T01:42:28.768Z,2.05
2022-11-06T01:45:25.206Z,1.42
2022-11-06T01:47:53.595Z,1.92
2022-11-06T01:50:22.208Z,2.00
2022-11-06T01:52:51.843Z,1.75
2022-11-06T01:55:25.190Z,1.67
2022-11-06T01:57:53.543Z,2.25
2022-11-06T02:00:23.086Z,2.38
2022-11-06T02:02:52.509Z,2.38
2022-11-06T02:05:20.849Z,1.90
2022-11-06T02:07:50.234Z,1.80
2022-11-06T02:10:18.707Z,1.80
2022-11-06T02:12:54.997Z,2.00
2022-11-06T02:15:35.498Z,1.80
2022-11-06T02:18:19.823Z,1.50
2022-11-06T02:21:00.102Z,1.52
2022-11-06T02:24:01.349Z,1.50
2022-11-06T02:26:49.832Z,1.75
2022-11-06T02:29:23.811Z,1.73
2022-11-06T02:31:57.109Z,1.40
2022-11-06T02:34:28.743Z,1.52
2022-11-06T02:37:01.160Z,1.90
2022-11-06T02:39:32.502Z,1.67
2022-11-06T02:42:04.103Z,1.90
2022-11-06T02:44:37.784Z,1.48
2022-11-06T02:47:10.529Z,1.55
2022-11-06T02:49:43.879Z,1.52
2022-11-06T02:52:17.008Z,1.55
2022-11-06T02:54:50.664Z,1.80
2022-11-06T02:57:22.914Z,1.70
2022-11-06T02:59:58.223Z,1.83
2022-11-06T03:02:32.337Z,1.40
2022-11-06T03:05:07.239Z,1.38
2022-11-06T03:07:40.999Z,1.70
2022-11-06T03:10:10.840Z,1.55
2022-11-06T03:12:51.167Z,1.58
2022-11-06T03:15:24.429Z,1.30
2022-11-06T03:18:00.684Z,1.60
2022-11-06T03:20:36.027Z,1.60
2022-11-06T03:23:10.905Z,1.42
2022-11-06T03:25:48.372Z,1.73
2022-11-06T03:28:24.954Z,1.70
2022-11-06T03:30:58.250Z,1.48
2022-11-06T03:33:34.090Z,2.00
2022-11-06T03:36:07.328Z,1.60
2022-11-06T03:38:42.188Z,2.10
2022-11-06T03:41:14.964Z,1.52
2022-11-06T03:43:48.768Z,1.88
2022-11-06T03:46:22.109Z,1.73
2022-11-06T03:48:54.040Z,1.90
2022-11-06T03:51:26.311Z,1.83
2022-11-06T03:53:59.187Z,1.58
2022-11-06T03:56:32.599Z,1.50
2022-11-06T03:59:05.500Z,2.00
2022-11-06T04:01:36.778Z,1.60
2022-11-06T04:04:10.400Z,1.65
2022-11-06T04:06:44.282Z,1.70
2022-11-06T04:09:32.892Z,2.00
2022-11-06T04:12:34.324Z,1.65
2022-11-06T04:15:04.898Z,1.50
2022-11-06T04:17:33.563Z,1.90
2022-11-06T04:20:08.239Z,2.17
2022-11-06T04:22:46.534Z,2.13
2022-11-06T04:25:43.506Z,2.40
2022-11-06T04:28:27.141Z,1.98
2022-11-06T04:31:07.237Z,2.25
2022-11-06T04:33:44.243Z,2.05
2022-11-06T04:36:19.065Z,1.60
2022-11-06T04:38:56.402Z,1.88
2022-11-06T04:41:34.834Z,1.77
2022-11-06T04:44:06.500Z,2.20
2022-11-06T04:46:42.153Z,1.90
2022-11-06T04:49:12.556Z,1.83
2022-11-06T04:51:41.950Z,1.83
2022-11-06T04:54:11.753Z,2.08
2022-11-06T04:56:44.721Z,2.15
2022-11-06T04:59:16.400Z,2.20
2022-11-06T05:01:47.001Z,2.00
2022-11-06T05:04:15.322Z,1.77
2022-11-06T05:06:43.437Z,2.00
2022-11-06T05:09:11.613Z,1.80
2022-11-06T05:11:39.940Z,2.15
2022-11-06T05:14:08.188Z,1.77
2022-11-06T05:16:36.359Z,1.80
2022-11-06T05:19:06.000Z,1.73
2022-11-06T05:21:51.907Z,1.85
2022-11-06T05:24:20.060Z,1.00
2022-11-06T05:26:48.113Z,1.88
2022-11-06T05:29:16.451Z,1.70
2022-11-06T05:31:44.461Z,2.70
2022-11-06T05:34:14.219Z,1.55
2022-11-06T05:36:42.267Z,1.42
2022-11-06T05:39:10.806Z,1.90
2022-11-06T05:41:38.800Z,2.38
2022-11-06T05:44:07.129Z,1.77
2022-11-06T05:46:48.370Z,2.00
2022-11-06T05:49:19.076Z,2.08
2022-11-06T05:51:47.283Z,1.52
2022-11-06T05:54:15.829Z,2.13
2022-11-06T05:56:43.907Z,1.40
2022-11-06T05:59:13.098Z,2.15
2022-11-06T06:01:41.331Z,1.67
2022-11-06T06:04:09.455Z,1.77
2022-11-06T06:06:39.317Z,2.00
2022-11-06T06:09:07.417Z,1.65
2022-11-06T06:11:35.547Z,1.80
2022-11-06T06:14:03.596Z,1.98
2022-11-06T06:16:32.045Z,1.50
2022-11-06T06:19:00.119Z,1.52
2022-11-06T06:21:28.421Z,1.63
2022-11-06T06:23:57.845Z,1.90
2022-11-06T06:26:26.089Z,2.00
2022-11-06T06:28:54.531Z,2.10
2022-11-06T06:31:22.949Z,2.00
2022-11-06T06:33:51.209Z,0.90
2022-11-06T06:36:19.221Z,1.67
2022-11-06T06:38:47.266Z,1.50
2022-11-06T06:41:16.958Z,2.00
2022-11-06T06:43:44.981Z,1.60
2022-11-06T06:46:12.977Z,1.83
2022-11-06T06:48:41.027Z,2.13
2022-11-06T06:51:09.309Z,1.38
2022-11-06T06:53:38.242Z,2.33
2022-11-06T06:56:07.133Z,1.90
2022-11-06T06:58:37.429Z,2.15
2022-11-06T07:01:10.591Z,1.60
2022-11-06T07:03:39.630Z,2.15
2022-11-06T07:06:08.493Z,1.85
2022-11-06T07:08:36.558Z,1.60
2022-11-06T07:11:06.847Z,1.77
2022-11-06T07:13:36.920Z,2.00
2022-11-06T07:16:05.733Z,1.90
2022-11-06T07:18:34.139Z,1.48
2022-11-06T07:21:02.289Z,2.13
2022-11-06T07:23:30.576Z,2.08
2022-11-06T07:25:58.632Z,1.58
2022-11-06T07:28:26.981Z,1.65
2022-11-06T07:30:59.689Z,1.98
2022-11-06T07:33:27.855Z,1.83
2022-11-06T07:35:56.036Z,1.80
2022-11-06T07:38:24.089Z,2.08
2022-11-06T07:40:52.430Z,1.85
2022-11-06T07:43:20.427Z,1.92
2022-11-06T07:45:48.449Z,1.83
2022-11-06T07:48:18.163Z,1.35
2022-11-06T07:50:46.147Z,1.85
2022-11-06T07:53:14.813Z,1.65
2022-11-06T07:55:49.508Z,2.17
2022-11-06T07:58:18.155Z,1.38
2022-11-06T08:00:48.727Z,1.73
2022-11-06T08:03:18.642Z,1.77
2022-11-06T08:05:47.250Z,1.90
2022-11-06T08:08:16.220Z,1.70
2022-11-06T08:10:44.655Z,1.63
2022-11-06T08:13:14.132Z,1.65
2022-11-06T08:15:43.216Z,2.00
2022-11-06T08:18:12.827Z,1.75
2022-11-06T08:20:43.151Z,2.20
2022-11-06T08:23:13.320Z,1.48
2022-11-06T08:25:41.684Z,1.23
2022-11-06T08:28:10.839Z,1.70
2022-11-06T08:30:39.729Z,1.55
2022-11-06T08:33:09.176Z,1.27
2022-11-06T08:35:37.474Z,2.00
2022-11-06T08:38:07.217Z,1.23
2022-11-06T08:40:37.286Z,1.52
2022-11-06T08:43:07.957Z,1.40
2022-11-06T08:45:38.457Z,1.55
2022-11-06T08:48:08.263Z,1.73
2022-11-06T08:50:37.835Z,1.65
2022-11-06T08:53:08.340Z,1.77
2022-11-06T08:55:38.817Z,1.70
2022-11-06T08:58:07.643Z,1.65
2022-11-06T09:00:36.443Z,1.80
2022-11-06T09:03:07.140Z,1.30
2022-11-06T09:05:35.421Z,1.85
2022-11-06T09:08:03.468Z,1.45
2022-11-06T09:10:33.302Z,1.92
2022-11-06T09:13:01.333Z,1.60
2022-11-06T09:15:29.506Z,1.70
2022-11-06T09:17:57.937Z,2.05
2022-11-06T09:20:26.911Z,1.40
2022-11-06T09:22:55.651Z,1.42
2022-11-06T09:25:23.741Z,1.90
2022-11-06T09:27:58.870Z,1.52
2022-11-06T09:30:28.708Z,1.40
2022-11-06T09:32:58.638Z,1.40
2022-11-06T09:35:28.253Z,1.30
2022-11-06T09:37:56.250Z,1.52
2022-11-06T09:40:34.608Z,1.30
2022-11-06T09:43:13.169Z,1.45
2022-11-06T09:45:42.189Z,1.05
2022-11-06T09:48:20.547Z,1.40
2022-11-06T09:50:52.507Z,1.10
2022-11-06T09:53:26.017Z,1.20
2022-11-06T09:55:54.801Z,1.20
2022-11-06T09:58:28.783Z,1.05
2022-11-06T10:00:56.936Z,1.10
2022-11-06T10:03:36.980Z,1.10
2022-11-06T10:06:05.518Z,1.20
2022-11-06T10:08:34.102Z,1.17
2022-11-06T10:11:05.637Z,1.08
2022-11-06T10:13:55.441Z,0.80
2022-11-06T10:16:31.394Z,1.30
2022-11-06T10:19:11.129Z,1.00
2022-11-06T10:21:48.861Z,0.93
2022-11-06T10:24:23.871Z,1.30
2022-11-06T10:26:55.917Z,1.15
2022-11-06T10:29:48.853Z,1.00
2022-11-06T10:32:49.432Z,1.25
2022-11-06T10:35:21.510Z,0.80
2022-11-06T10:37:55.121Z,1.20
2022-11-06T10:40:26.251Z,1.00
2022-11-06T10:43:01.060Z,1.10
2022-11-06T10:45:31.321Z,0.98
2022-11-06T10:48:06.457Z,1.33
2022-11-06T10:50:47.638Z,0.93
2022-11-06T10:53:27.208Z,0.90
2022-11-06T10:56:10.782Z,1.40
2022-11-06T10:58:39.420Z,1.20
2022-11-06T11:01:14.911Z,1.52
2022-11-06T11:03:44.714Z,0.88
2022-11-06T11:06:13.179Z,1.52
2022-11-06T11:08:43.938Z,0.95
2022-11-06T11:11:21.035Z,0.80
2022-11-06T11:13:50.593Z,1.10
2022-11-06T11:16:22.503Z,0.93
2022-11-06T11:18:51.912Z,1.00
2022-11-06T11:21:27.707Z,0.98
2022-11-06T11:24:09.967Z,1.00
2022-11-06T11:26:41.255Z,1.00
2022-11-06T11:29:17.448Z,0.90
2022-11-06T11:31:52.233Z,0.90
2022-11-06T11:34:22.878Z,0.80
2022-11-06T11:36:58.030Z,0.90
2022-11-06T11:39:29.895Z,0.90
2022-11-06T11:42:17.612Z,0.80
2022-11-06T11:44:45.704Z,1.15
2022-11-06T11:47:24.512Z,0.82
2022-11-06T11:49:52.646Z,0.88
2022-11-06T11:52:22.974Z,0.70
2022-11-06T11:54:53.925Z,1.40
2022-11-06T11:57:25.100Z,0.80
2022-11-06T11:59:56.408Z,0.70
2022-11-06T12:02:29.549Z,0.80
2022-11-06T12:05:00.009Z,0.90
2022-11-06T12:07:30.871Z,0.88
2022-11-06T12:10:00.104Z,0.77
2022-11-06T12:12:32.453Z,0.60
2022-11-06T12:15:19.496Z,0.77
2022-11-06T12:17:54.169Z,0.77
2022-11-06T12:20:27.711Z,0.80
2022-11-06T12:22:57.826Z,0.60
2022-11-06T12:25:30.249Z,0.80
2022-11-06T12:28:00.904Z,0.82
2022-11-06T12:30:32.896Z,0.60
2022-11-06T12:33:07.760Z,1.02
2022-11-06T12:35:41.498Z,1.00
2022-11-06T12:38:19.387Z,0.80
2022-11-06T12:40:52.301Z,0.90
2022-11-06T12:43:28.372Z,0.80
2022-11-06T12:46:11.544Z,1.13
2022-11-06T12:49:05.455Z,0.70
2022-11-06T12:51:45.496Z,0.70
2022-11-06T12:54:27.529Z,0.60
2022-11-06T12:57:06.479Z,0.90
2022-11-06T12:59:46.284Z,1.00
2022-11-06T13:02:30.481Z,0.90
2022-11-06T13:05:06.796Z,0.70
2022-11-06T13:07:56.822Z,0.95
2022-11-06T13:10:41.583Z,0.98
2022-11-06T13:13:27.213Z,0.80
2022-11-06T13:16:00.679Z,0.80
2022-11-06T13:18:35.551Z,0.70
2022-11-06T13:21:11.470Z,0.90
2022-11-06T13:23:43.560Z,0.73
2022-11-06T13:26:18.730Z,0.88
2022-11-06T13:28:51.227Z,0.73
2022-11-06T13:31:23.137Z,0.80
2022-11-06T13:33:54.553Z,0.75
2022-11-06T13:36:24.606Z,0.90
2022-11-06T13:38:56.712Z,1.25
2022-11-06T13:41:28.604Z,1.05
2022-11-06T13:44:00.533Z,0.80
2022-11-06T13:46:38.402Z,0.90
2022-11-06T13:49:15.993Z,0.77
2022-11-06T13:51:51.621Z,0.68
2022-11-06T13:54:35.462Z,0.60
2022-11-06T13:57:20.173Z,0.77
2022-11-06T14:00:02.737Z,0.80
2022-11-06T14:03:02.235Z,0.80
2022-11-06T14:05:51.419Z,1.35
2022-11-06T14:08:25.353Z,0.80
2022-11-06T14:10:58.643Z,1.00
2022-11-06T14:13:29.824Z,0.70
2022-11-06T14:16:06.961Z,0.85
2022-11-06T14:18:36.671Z,0.82
2022-11-06T14:21:50.991Z,0.90
2022-11-06T14:24:32.818Z,0.70
2022-11-06T14:27:02.625Z,0.75
2022-11-06T14:30:01.404Z,0.68
2022-11-06T14:32:56.577Z,0.80
2022-11-06T14:35:52.548Z,1.00
2022-11-06T14:38:44.868Z,0.80
2022-11-06T14:41:49.257Z,1.00
2022-11-06T14:44:42.767Z,0.70
2022-11-06T14:47:24.892Z,0.90
2022-11-06T14:49:55.618Z,0.80
2022-11-06T14:52:26.163Z,0.80
2022-11-06T14:55:04.421Z,1.00
2022-11-06T14:57:40.582Z,0.77
2022-11-06T15:00:15.529Z,0.90
2022-11-06T15:02:44.855Z,1.20
2022-11-06T15:05:19.782Z,1.02
2022-11-06T15:08:04.979Z,0.90
2022-11-06T15:10:55.078Z,1.10
2022-11-06T15:13:33.488Z,0.95
2022-11-06T15:16:25.417Z,1.48
2022-11-06T15:18:54.521Z,2.85
2022-11-06T15:21:25.905Z,3.13
2022-11-06T15:24:04.180Z,2.60
2022-11-06T15:26:38.761Z,1.27
2022-11-06T15:29:21.539Z,1.10
2022-11-06T15:31:53.953Z,1.38
2022-11-06T15:34:29.255Z,1.25
2022-11-06T15:37:05.261Z,1.63
2022-11-06T15:39:39.137Z,1.02
2022-11-06T15:42:10.164Z,1.67
2022-11-06T15:44:42.006Z,4.25
2022-11-06T15:47:22.212Z,4.00
2022-11-06T15:49:50.355Z,3.45
2022-11-06T15:52:19.782Z,2.72
2022-11-06T15:54:49.261Z,2.05
2022-11-06T15:57:21.076Z,1.95
2022-11-06T15:59:50.184Z,1.83
2022-11-06T16:02:22.642Z,1.08
2022-11-06T16:04:51.845Z,1.00
2022-11-06T16:07:20.861Z,1.20
2022-11-06T16:09:50.475Z,1.08
2022-11-06T16:12:19.763Z,1.27
2022-11-06T16:14:47.887Z,1.40
2022-11-06T16:17:24.735Z,1.60
2022-11-06T16:19:58.385Z,1.60
2022-11-06T16:22:31.052Z,1.60
2022-11-06T16:25:02.754Z,1.23
2022-11-06T16:27:35.331Z,1.20
2022-11-06T16:30:05.119Z,1.52
2022-11-06T16:32:39.284Z,1.13
2022-11-06T16:35:31.568Z,2.75
2022-11-06T16:38:45.597Z,1.85
2022-11-06T16:41:36.696Z,1.10
2022-11-06T16:44:31.317Z,1.10
2022-11-06T16:47:18.256Z,0.95
2022-11-06T16:49:53.538Z,1.10
2022-11-06T16:52:30.552Z,1.23
2022-11-06T16:55:02.017Z,1.17
2022-11-06T16:57:33.480Z,1.15
2022-11-06T17:00:05.333Z,1.10
2022-11-06T17:02:37.919Z,1.20
2022-11-06T17:05:15.564Z,1.40
2022-11-06T17:07:46.045Z,1.75
2022-11-06T17:10:38.618Z,1.33
2022-11-06T17:13:18.511Z,1.40
2022-11-06T17:15:49.262Z,1.17
2022-11-06T17:18:20.728Z,1.30
2022-11-06T17:20:53.527Z,1.30
2022-11-06T17:23:23.995Z,1.33
2022-11-06T17:25:54.086Z,2.20
2022-11-06T17:28:22.800Z,1.52
2022-11-06T17:30:51.841Z,1.50
2022-11-06T17:33:20.275Z,1.75
2022-11-06T17:35:49.309Z,1.30
2022-11-06T17:38:18.581Z,1.33
2022-11-06T17:40:48.479Z,1.73
2022-11-06T17:43:17.221Z,1.80
2022-11-06T17:45:48.099Z,1.35
2022-11-06T17:48:16.240Z,1.67
2022-11-06T17:51:02.315Z,1.50
2022-11-06T17:53:30.773Z,1.60
2022-11-06T17:56:03.766Z,1.20
2022-11-06T17:58:31.868Z,1.88
2022-11-06T18:01:07.164Z,1.80
2022-11-06T18:03:36.858Z,1.42
2022-11-06T18:06:05.988Z,1.55
2022-11-06T18:08:34.396Z,1.52
2022-11-06T18:11:03.780Z,1.38
2022-11-06T18:13:32.338Z,1.52
2022-11-06T18:16:00.466Z,1.20
2022-11-06T18:18:28.758Z,1.70
2022-11-06T18:20:56.900Z,1.65
2022-11-06T18:23:25.095Z,1.60
2022-11-06T18:25:57.278Z,1.60
2022-11-06T18:28:27.967Z,1.38
2022-11-06T18:30:56.052Z,1.08
2022-11-06T18:33:24.139Z,1.42
2022-11-06T18:35:52.545Z,1.20
2022-11-06T18:38:20.792Z,1.50
2022-11-06T18:40:51.895Z,1.40
2022-11-06T18:43:20.173Z,1.35
2022-11-06T18:45:50.048Z,1.50
2022-11-06T18:48:21.360Z,2.70
2022-11-06T18:50:49.969Z,3.17
2022-11-06T18:53:18.172Z,2.60
2022-11-06T18:55:46.974Z,2.10
2022-11-06T18:58:15.934Z,2.00
2022-11-06T19:00:44.732Z,2.22
2022-11-06T19:03:14.239Z,1.45
2022-11-06T19:05:48.058Z,1.13
2022-11-06T19:08:16.611Z,1.40
2022-11-06T19:10:47.495Z,1.50
2022-11-06T19:13:15.629Z,1.50
2022-11-06T19:15:44.245Z,1.60
2022-11-06T19:18:14.246Z,1.38
2022-11-06T19:20:42.663Z,1.58
2022-11-06T19:23:14.745Z,1.50
2022-11-06T19:25:43.353Z,1.30
2022-11-06T19:28:12.650Z,1.20
2022-11-06T19:30:41.292Z,1.35
2022-11-06T19:33:09.360Z,1.50
2022-11-06T19:35:39.914Z,1.45
2022-11-06T19:38:08.430Z,2.13
2022-11-06T19:40:36.480Z,2.47
2022-11-06T19:43:07.031Z,1.15
2022-11-06T19:45:36.506Z,2.33
2022-11-06T19:48:04.804Z,1.85
2022-11-06T19:50:58.206Z,1.65
2022-11-06T19:53:25.552Z,1.75
2022-11-06T19:55:53.778Z,1.50
2022-11-06T19:58:22.162Z,1.38
2022-11-06T20:00:50.221Z,1.60
2022-11-06T20:03:18.506Z,1.20
2022-11-06T20:05:46.645Z,1.15
2022-11-06T20:08:14.906Z,1.35
2022-11-06T20:10:44.382Z,1.10
2022-11-06T20:13:12.595Z,1.70
2022-11-06T20:15:40.981Z,2.35
2022-11-06T20:18:09.415Z,1.75
2022-11-06T20:20:37.777Z,2.00
2022-11-06T20:23:05.841Z,2.78
2022-11-06T20:25:33.880Z,2.88
2022-11-06T20:28:03.357Z,2.33
2022-11-06T20:30:31.639Z,1.90
2022-11-06T20:32:59.625Z,1.67
2022-11-06T20:35:27.664Z,2.83
2022-11-06T20:37:55.720Z,2.30
2022-11-06T20:40:23.728Z,1.75
2022-11-06T20:42:51.739Z,1.75
2022-11-06T20:45:21.238Z,1.60
2022-11-06T20:47:49.321Z,1.52
2022-11-06T20:50:17.558Z,1.48
2022-11-06T20:52:47.421Z,1.42
2022-11-06T20:55:15.435Z,1.77
2022-11-06T20:57:43.784Z,2.13
2022-11-06T21:00:13.394Z,2.60
2022-11-06T21:02:43.236Z,1.90
2022-11-06T21:05:11.502Z,2.22
2022-11-06T21:07:39.477Z,1.75
2022-11-06T21:10:07.910Z,1.92
2022-11-06T21:12:35.903Z,1.10
2022-11-06T21:15:04.010Z,1.92
2022-11-06T21:17:32.169Z,1.33
2022-11-06T21:20:01.559Z,1.88
2022-11-06T21:22:29.626Z,2.15
2022-11-06T21:24:57.953Z,1.10
2022-11-06T21:27:26.065Z,1.65
2022-11-06T21:29:55.962Z,1.58
2022-11-06T21:32:24.044Z,1.55
2022-11-06T21:34:52.023Z,1.30
2022-11-06T21:37:32.821Z,1.05
2022-11-06T21:40:01.270Z,1.40
2022-11-06T21:42:29.360Z,1.30
2022-11-06T21:44:57.768Z,1.80
2022-11-06T21:47:25.845Z,1.63
2022-11-06T21:49:56.788Z,1.67
2022-11-06T21:52:43.605Z,1.70
2022-11-06T21:55:29.389Z,1.20
2022-11-06T21:57:57.367Z,1.23
2022-11-06T22:00:25.408Z,1.23
2022-11-06T22:02:53.424Z,1.30
2022-11-06T22:05:21.486Z,1.60
2022-11-06T22:07:50.850Z,1.63
2022-11-06T22:10:18.973Z,1.60
2022-11-06T22:12:47.042Z,1.40
2022-11-06T22:15:15.074Z,1.40
2022-11-06T22:17:43.068Z,1.38
2022-11-06T22:20:12.436Z,1.23
2022-11-06T22:22:40.471Z,1.40
2022-11-06T22:25:10.846Z,1.17
2022-11-06T22:27:41.016Z,1.30
2022-11-06T22:30:10.547Z,1.50
2022-11-06T22:32:38.982Z,1.27
2022-11-06T22:35:07.226Z,1.30
2022-11-06T22:37:35.277Z,1.60
2022-11-06T22:40:03.383Z,1.67
2022-11-06T22:42:32.782Z,1.23
2022-11-06T22:45:01.074Z,1.40
2022-11-06T22:47:29.810Z,1.30
2022-11-06T22:49:58.190Z,1.20
2022-11-06T22:52:26.283Z,1.40
2022-11-06T22:54:54.388Z,1.60
2022-11-06T22:57:22.744Z,1.55
2022-11-06T22:59:52.230Z,1.50
2022-11-06T23:02:20.413Z,1.23
2022-11-06T23:04:48.773Z,1.48
2022-11-06T23:07:16.782Z,1.38
2022-11-06T23:09:45.300Z,1.45
2022-11-06T23:12:14.183Z,1.60
2022-11-06T23:14:42.476Z,1.52
2022-11-06T23:17:11.988Z,2.30
2022-11-06T23:19:40.065Z,1.58
2022-11-06T23:22:25.912Z,1.40
2022-11-06T23:24:54.758Z,1.42
2022-11-06T23:27:23.852Z,1.35
2022-11-06T23:29:51.850Z,1.45
2022-11-06T23:32:21.281Z,1.25
2022-11-06T23:34:49.625Z,1.80
2022-11-06T23:37:18.049Z,1.48
2022-11-06T23:39:46.090Z,1.70
2022-11-06T23:42:15.681Z,1.77
2022-11-06T23:45:01.455Z,1.48
2022-11-06T23:47:30.949Z,1.52
2022-11-06T23:50:01.901Z,1.45
2022-11-06T23:52:30.374Z,1.52
2022-11-06T23:54:58.505Z,1.63
2022-11-06T23:57:26.537Z,1.45
2022-11-06T23:59:55.004Z,1.70
